Terminal Aerodrome Forecast
Issued by NWS

Home | Current Version | Previous Version | Text Only | Print | Product List | Glossary On
Versions: 1 2 3 4 5 6 7 8 9 10 11 12 13 14 15 16 17 18 19 20
000
FTUS44 KLZK 181100
TAFHRO
TAF
KHRO 181120Z 1812/1912 13006KT P6SM -DZ SCT002 BKN008 OVC012
      TEMPO 1812/1816 2SM -DZ BR OVC002
     FM181800 VRB05KT 4SM BR BKN004 OVC012
     FM190000 VRB02KT 4SM BR OVC008
     FM190400 06003KT 2SM -DZ BR BKN004 OVC008
      TEMPO 1908/1912 1/2SM FG OVC002=

USA.gov is the U.S. government's official web portal to all federal, state and local government web resources and services.